createdAt,value
2023-03-18T00:01:03.440Z,5.70
2023-03-18T00:03:36.698Z,5.00
2023-03-18T00:06:17.756Z,4.70
2023-03-18T00:08:46.648Z,5.67
2023-03-18T00:11:17.714Z,5.23
2023-03-18T00:13:44.204Z,5.57
2023-03-18T00:16:11.752Z,4.73
2023-03-18T00:18:39.520Z,5.50
2023-03-18T00:21:06.644Z,4.77
2023-03-18T00:23:34.084Z,5.50
2023-03-18T00:26:02.373Z,5.37
2023-03-18T00:28:33.617Z,5.53
2023-03-18T00:31:09.947Z,5.43
2023-03-18T00:33:39.325Z,5.20
2023-03-18T00:36:09.361Z,5.63
2023-03-18T00:38:36.480Z,5.50
2023-03-18T00:41:12.504Z,4.97
2023-03-18T00:43:46.186Z,5.03
2023-03-18T00:46:23.775Z,4.77
2023-03-18T00:48:54.017Z,5.13
2023-03-18T00:51:23.054Z,5.10
2023-03-18T00:53:56.206Z,5.60
2023-03-18T00:56:27.165Z,5.50
2023-03-18T00:58:54.337Z,5.57
2023-03-18T01:01:21.750Z,5.17
2023-03-18T01:03:51.155Z,5.33
2023-03-18T01:06:22.888Z,5.03
2023-03-18T01:08:50.951Z,4.63
2023-03-18T01:11:18.000Z,4.70
2023-03-18T01:13:45.372Z,4.67
2023-03-18T01:16:12.588Z,5.17
2023-03-18T01:18:40.710Z,5.47
2023-03-18T01:21:09.483Z,5.37
2023-03-18T01:23:37.544Z,3.87
2023-03-18T01:26:05.129Z,5.23
2023-03-18T01:28:32.096Z,5.90
2023-03-18T01:30:59.178Z,5.03
2023-03-18T01:33:26.918Z,5.77
2023-03-18T01:35:59.842Z,5.30
2023-03-18T01:38:30.717Z,5.60
2023-03-18T01:40:59.837Z,5.10
2023-03-18T01:43:38.043Z,5.40
2023-03-18T01:48:57.419Z,5.13
2023-03-18T01:51:26.690Z,4.30
2023-03-18T01:53:55.855Z,4.10
2023-03-18T01:56:22.956Z,5.27
2023-03-18T01:58:56.785Z,5.13
2023-03-18T02:01:38.482Z,4.57
2023-03-18T02:04:09.727Z,4.97
2023-03-18T02:06:38.113Z,5.90
2023-03-18T02:09:06.502Z,4.17
2023-03-18T02:11:39.290Z,5.20
2023-03-18T02:14:10.904Z,5.40
2023-03-18T02:16:51.943Z,4.93
2023-03-18T02:22:38.579Z,4.93
2023-03-18T02:28:09.316Z,4.53
2023-03-18T02:30:54.264Z,5.07
2023-03-18T02:33:25.938Z,4.90
2023-03-18T02:36:10.336Z,5.47
2023-03-18T02:38:42.581Z,4.57
2023-03-18T02:41:21.863Z,4.53
2023-03-18T02:43:49.595Z,4.40
2023-03-18T02:48:42.595Z,5.47
2023-03-18T02:51:12.103Z,4.93
2023-03-18T02:53:39.060Z,4.67
2023-03-18T02:56:06.681Z,4.80
2023-03-18T02:58:33.594Z,5.30
2023-03-18T03:01:00.533Z,4.97
2023-03-18T03:03:28.484Z,4.73
2023-03-18T03:05:55.692Z,5.00
2023-03-18T03:08:23.605Z,4.97
2023-03-18T03:10:51.590Z,4.83
2023-03-18T03:13:19.549Z,3.97
2023-03-18T03:15:46.372Z,4.73
2023-03-18T03:18:12.884Z,4.87
2023-03-18T03:20:39.716Z,5.27
2023-03-18T03:23:09.392Z,4.90
2023-03-18T03:25:36.871Z,4.43
2023-03-18T03:28:05.055Z,4.77
2023-03-18T03:30:32.217Z,5.23
2023-03-18T03:32:59.687Z,5.03
2023-03-18T03:35:27.118Z,4.30
2023-03-18T03:37:53.630Z,4.80
2023-03-18T03:40:20.902Z,5.70
2023-03-18T03:42:48.338Z,5.23
2023-03-18T03:45:17.911Z,5.13
2023-03-18T03:47:48.043Z,5.03
2023-03-18T03:50:17.230Z,5.23
2023-03-18T03:52:44.604Z,4.43
2023-03-18T03:55:16.711Z,5.13
2023-03-18T03:57:43.448Z,4.90
2023-03-18T04:00:15.869Z,4.87
2023-03-18T04:02:44.146Z,4.57
2023-03-18T04:05:16.119Z,4.43
2023-03-18T04:07:44.588Z,4.87
2023-03-18T04:10:14.215Z,4.90
2023-03-18T04:12:40.818Z,4.70
2023-03-18T04:15:09.031Z,5.00
2023-03-18T04:17:35.781Z,4.73
2023-03-18T04:20:04.090Z,4.63
2023-03-18T04:22:31.024Z,5.43
2023-03-18T04:24:57.838Z,5.10
2023-03-18T04:27:26.000Z,5.23
2023-03-18T04:29:52.471Z,5.10
2023-03-18T04:32:18.951Z,5.13
2023-03-18T04:34:45.662Z,4.67
2023-03-18T04:37:13.750Z,6.53
2023-03-18T04:39:41.202Z,4.80
2023-03-18T04:42:08.027Z,5.13
2023-03-18T04:44:34.502Z,5.27
2023-03-18T04:47:00.977Z,4.30
2023-03-18T04:49:27.459Z,4.50
2023-03-18T04:51:54.144Z,4.90
2023-03-18T04:54:20.861Z,4.90
2023-03-18T04:56:47.529Z,4.67
2023-03-18T04:59:14.215Z,4.57
2023-03-18T05:01:40.681Z,4.87
2023-03-18T05:04:07.572Z,4.80
2023-03-18T05:06:34.185Z,5.13
2023-03-18T05:09:01.056Z,4.87
2023-03-18T05:11:28.295Z,4.67
2023-03-18T05:13:54.949Z,4.97
2023-03-18T05:16:21.444Z,4.77
2023-03-18T05:18:48.202Z,4.73
2023-03-18T05:21:14.866Z,4.83
2023-03-18T05:23:41.418Z,4.67
2023-03-18T05:26:09.195Z,4.47
2023-03-18T05:28:35.679Z,5.57
2023-03-18T05:31:02.923Z,5.13
2023-03-18T05:33:29.464Z,5.43
2023-03-18T05:35:56.132Z,4.40
2023-03-18T05:38:22.629Z,5.10
2023-03-18T05:40:49.172Z,5.03
2023-03-18T05:43:16.024Z,5.07
2023-03-18T05:45:43.392Z,4.30
2023-03-18T05:48:10.916Z,5.40
2023-03-18T05:50:41.571Z,5.20
2023-03-18T05:53:09.111Z,4.57
2023-03-18T05:55:35.798Z,4.23
2023-03-18T05:58:03.222Z,4.73
2023-03-18T06:00:30.796Z,5.63
2023-03-18T06:02:59.330Z,4.43
2023-03-18T06:05:26.296Z,5.30
2023-03-18T06:07:54.087Z,5.43
2023-03-18T06:10:22.153Z,4.27
2023-03-18T06:12:49.914Z,4.93
2023-03-18T06:15:16.772Z,5.20
2023-03-18T06:17:43.274Z,5.97
2023-03-18T06:20:13.508Z,4.90
2023-03-18T06:22:40.261Z,5.27
2023-03-18T06:25:07.811Z,5.57
2023-03-18T06:27:35.696Z,5.63
2023-03-18T06:30:03.826Z,4.97
2023-03-18T06:32:32.227Z,5.87
2023-03-18T06:34:59.279Z,6.00
2023-03-18T06:37:25.836Z,6.07
2023-03-18T06:39:52.445Z,6.30
2023-03-18T06:42:18.911Z,7.80
2023-03-18T06:44:49.803Z,8.03
2023-03-18T06:47:23.714Z,8.73
2023-03-18T06:49:51.116Z,9.30
2023-03-18T06:52:18.382Z,8.57
2023-03-18T06:54:45.876Z,7.70
2023-03-18T06:57:12.806Z,8.13
2023-03-18T06:59:39.288Z,7.43
2023-03-18T07:02:07.785Z,8.03
2023-03-18T07:04:34.704Z,7.37
2023-03-18T07:07:01.343Z,7.80
2023-03-18T07:09:28.216Z,7.80
2023-03-18T07:11:54.734Z,8.20
2023-03-18T07:14:21.219Z,8.23
2023-03-18T07:16:47.698Z,8.53
2023-03-18T07:19:14.553Z,8.37
2023-03-18T07:21:42.231Z,8.40
2023-03-18T07:24:10.453Z,9.20
2023-03-18T07:26:36.944Z,9.50
2023-03-18T07:29:04.198Z,9.33
2023-03-18T07:31:31.050Z,9.43
2023-03-18T07:33:57.607Z,8.57
2023-03-18T07:36:24.931Z,8.60
2023-03-18T07:38:51.454Z,8.23
2023-03-18T07:41:17.930Z,8.37
2023-03-18T07:43:44.444Z,7.83
2023-03-18T07:46:11.110Z,7.57
2023-03-18T07:48:37.616Z,7.17
2023-03-18T07:51:04.587Z,7.17
2023-03-18T07:53:31.044Z,7.27
2023-03-18T07:55:57.560Z,6.80
2023-03-18T07:58:24.913Z,7.20
2023-03-18T08:00:52.705Z,7.07
2023-03-18T08:03:19.202Z,6.67
2023-03-18T08:05:45.692Z,8.13
2023-03-18T08:08:12.162Z,7.03
2023-03-18T08:10:38.628Z,7.90
2023-03-18T08:13:05.399Z,7.00
2023-03-18T08:15:32.173Z,8.03
2023-03-18T08:17:59.259Z,7.67
2023-03-18T08:20:26.381Z,7.83
2023-03-18T08:22:52.909Z,7.17
2023-03-18T08:25:21.537Z,8.03
2023-03-18T08:27:47.985Z,8.40
2023-03-18T08:30:14.592Z,7.80
2023-03-18T08:32:41.305Z,7.90
2023-03-18T08:35:09.147Z,7.13
2023-03-18T08:37:35.929Z,7.60
2023-03-18T08:40:03.125Z,7.60
2023-03-18T08:42:29.771Z,8.37
2023-03-18T08:44:56.888Z,7.43
2023-03-18T08:47:24.439Z,7.23
2023-03-18T08:49:51.478Z,7.63
2023-03-18T08:52:18.414Z,7.50
2023-03-18T08:54:45.125Z,7.37
2023-03-18T08:57:12.043Z,8.20
2023-03-18T08:59:38.578Z,8.47
2023-03-18T09:02:05.223Z,9.20
2023-03-18T09:04:32.049Z,8.60
2023-03-18T09:07:00.121Z,7.77
2023-03-18T09:09:40.875Z,8.00
2023-03-18T09:12:11.728Z,8.07
2023-03-18T09:14:39.643Z,8.07
2023-03-18T09:17:06.797Z,8.30
2023-03-18T09:19:33.265Z,8.63
2023-03-18T09:21:59.861Z,8.17
2023-03-18T09:24:26.341Z,7.63
2023-03-18T09:26:52.843Z,8.00
2023-03-18T09:29:19.405Z,8.60
2023-03-18T09:31:46.211Z,7.93
2023-03-18T09:34:13.712Z,7.67
2023-03-18T09:36:42.829Z,7.77
2023-03-18T09:39:09.359Z,8.50
2023-03-18T09:42:31.960Z,8.43
2023-03-18T09:45:14.205Z,7.73
2023-03-18T09:48:26.967Z,8.50
2023-03-18T09:52:08.258Z,8.60
2023-03-18T09:55:21.051Z,8.17
2023-03-18T09:57:52.578Z,8.47
2023-03-18T10:00:36.159Z,8.33
2023-03-18T10:03:33.757Z,8.40
2023-03-18T10:06:11.838Z,8.50
2023-03-18T10:12:36.665Z,8.53
2023-03-18T10:15:44.835Z,8.43
2023-03-18T10:18:27.180Z,8.00
2023-03-18T10:21:40.672Z,8.40
2023-03-18T10:25:09.359Z,8.57
2023-03-18T10:30:37.209Z,8.00
2023-03-18T10:33:27.046Z,8.20
2023-03-18T10:36:11.691Z,8.70
2023-03-18T10:38:46.310Z,8.30
2023-03-18T10:41:29.000Z,8.33
2023-03-18T10:44:01.117Z,8.90
2023-03-18T10:46:27.872Z,8.77
2023-03-18T10:49:10.938Z,8.23
2023-03-18T10:51:52.825Z,9.07
2023-03-18T10:54:36.679Z,9.30
2023-03-18T10:57:03.439Z,9.10
2023-03-18T10:59:30.338Z,8.70
2023-03-18T11:02:09.456Z,9.10
2023-03-18T11:04:47.904Z,8.97
2023-03-18T11:07:25.982Z,10.03
2023-03-18T11:09:53.898Z,8.60
2023-03-18T11:12:28.480Z,8.43
2023-03-18T11:14:55.768Z,9.60
2023-03-18T11:17:32.502Z,9.80
2023-03-18T11:20:24.615Z,10.23
2023-03-18T11:22:54.900Z,9.17
2023-03-18T11:25:29.395Z,10.07
2023-03-18T11:28:04.943Z,9.37
2023-03-18T11:30:55.434Z,9.77
2023-03-18T11:33:36.542Z,9.13
2023-03-18T11:36:13.723Z,9.57
2023-03-18T11:38:40.260Z,9.60
2023-03-18T11:41:23.299Z,9.40
2023-03-18T11:44:15.445Z,10.03
2023-03-18T11:47:04.662Z,9.73
2023-03-18T11:49:32.214Z,9.80
2023-03-18T11:52:39.602Z,11.17
2023-03-18T11:56:22.256Z,9.00
2023-03-18T12:01:12.764Z,10.57
2023-03-18T12:04:26.282Z,10.33
2023-03-18T12:10:52.009Z,9.80
2023-03-18T12:13:56.388Z,9.50
2023-03-18T12:17:05.637Z,10.10
2023-03-18T12:20:40.056Z,9.77
2023-03-18T12:23:50.091Z,9.47
2023-03-18T12:26:56.567Z,8.73
2023-03-18T12:29:51.774Z,9.00
2023-03-18T12:38:21.157Z,9.47
2023-03-18T12:43:56.480Z,8.87
2023-03-18T12:46:39.603Z,9.00
2023-03-18T12:49:27.891Z,9.40
2023-03-18T12:52:07.011Z,9.23
2023-03-18T12:55:06.726Z,9.67
2023-03-18T12:58:09.581Z,9.10
2023-03-18T13:00:53.706Z,8.47
2023-03-18T13:05:51.904Z,9.23
2023-03-18T13:10:05.038Z,9.00
2023-03-18T13:12:42.212Z,9.53
2023-03-18T13:15:39.802Z,9.57
2023-03-18T13:18:24.139Z,8.93
2023-03-18T13:20:55.954Z,9.33
2023-03-18T13:27:58.792Z,9.07
2023-03-18T13:31:09.366Z,9.43
2023-03-18T13:35:58.578Z,9.87
2023-03-18T13:44:04.758Z,8.87
2023-03-18T13:46:33.135Z,9.23
2023-03-18T13:49:03.232Z,9.47
2023-03-18T13:51:58.761Z,9.50
2023-03-18T13:54:40.354Z,9.40
2023-03-18T13:57:42.989Z,9.50
2023-03-18T14:02:44.633Z,9.37
2023-03-18T14:06:54.603Z,9.50
2023-03-18T14:09:45.563Z,9.20
2023-03-18T14:12:39.028Z,9.93
2023-03-18T14:15:43.740Z,8.87
2023-03-18T14:18:26.718Z,9.90
2023-03-18T14:21:00.840Z,8.53
2023-03-18T14:23:36.479Z,9.13
2023-03-18T14:26:29.042Z,9.27
2023-03-18T14:29:46.066Z,8.90
2023-03-18T14:32:38.808Z,9.00
2023-03-18T14:37:28.730Z,9.00
2023-03-18T14:40:38.621Z,8.23
2023-03-18T14:43:24.821Z,9.30
2023-03-18T14:45:57.183Z,8.97
2023-03-18T14:48:30.636Z,9.07
2023-03-18T14:51:10.944Z,9.70
2023-03-18T14:54:00.649Z,9.20
2023-03-18T14:56:39.539Z,8.90
2023-03-18T14:59:07.218Z,9.20
2023-03-18T15:01:43.876Z,9.50
2023-03-18T15:04:21.242Z,9.00
2023-03-18T15:06:48.828Z,9.70
2023-03-18T15:09:27.820Z,10.17
2023-03-18T15:11:54.631Z,10.30
2023-03-18T15:14:27.611Z,9.60
2023-03-18T15:17:13.613Z,10.05
2023-03-18T15:19:40.358Z,9.97
2023-03-18T15:22:15.696Z,10.00
2023-03-18T15:24:42.764Z,10.97
2023-03-18T15:27:21.177Z,10.00
2023-03-18T15:30:01.635Z,10.10
2023-03-18T15:32:48.928Z,9.77
2023-03-18T15:35:24.131Z,10.10
2023-03-18T15:41:06.733Z,9.67
2023-03-18T15:43:44.201Z,10.27
2023-03-18T15:46:32.084Z,10.10
2023-03-18T15:49:04.623Z,10.53
2023-03-18T15:51:44.247Z,10.10
2023-03-18T15:54:27.367Z,10.23
2023-03-18T15:56:57.167Z,10.10
2023-03-18T15:59:32.572Z,10.13
2023-03-18T16:02:00.788Z,10.20
2023-03-18T16:04:33.378Z,9.93
2023-03-18T16:06:59.914Z,9.67
2023-03-18T16:09:26.721Z,10.67
2023-03-18T16:12:09.654Z,9.77
2023-03-18T16:14:42.389Z,10.47
2023-03-18T16:17:21.139Z,10.33
2023-03-18T16:19:53.399Z,10.27
2023-03-18T16:22:19.880Z,9.77
2023-03-18T16:24:46.385Z,9.83
2023-03-18T16:27:38.511Z,10.00
2023-03-18T16:30:28.907Z,10.10
2023-03-18T16:32:57.285Z,10.53
2023-03-18T16:35:29.842Z,9.37
2023-03-18T16:37:57.005Z,10.23
2023-03-18T16:40:27.605Z,10.27
2023-03-18T16:42:55.006Z,9.97
2023-03-18T16:45:30.659Z,8.50
2023-03-18T16:48:06.952Z,10.10
2023-03-18T16:50:37.698Z,9.33
2023-03-18T16:53:26.842Z,9.30
2023-03-18T16:56:09.393Z,9.90
2023-03-18T16:58:36.968Z,9.57
2023-03-18T17:01:06.589Z,9.57
2023-03-18T17:03:35.009Z,9.40
2023-03-18T17:06:01.678Z,8.60
2023-03-18T17:08:28.180Z,8.77
2023-03-18T17:11:01.085Z,9.13
2023-03-18T17:13:31.245Z,8.97
2023-03-18T17:15:57.832Z,9.23
2023-03-18T17:18:25.599Z,8.70
2023-03-18T17:20:52.091Z,10.40
2023-03-18T17:23:25.957Z,10.13
2023-03-18T17:25:56.361Z,11.83
2023-03-18T17:28:42.877Z,11.30
2023-03-18T17:31:11.953Z,10.07
2023-03-18T17:33:38.460Z,8.90
2023-03-18T17:36:06.792Z,8.60
2023-03-18T17:38:36.602Z,7.67
2023-03-18T17:41:13.893Z,8.57
2023-03-18T17:43:41.248Z,10.43
2023-03-18T17:46:07.830Z,11.30
2023-03-18T17:48:37.087Z,13.20
2023-03-18T17:51:15.356Z,13.43
2023-03-18T17:53:48.725Z,13.57
2023-03-18T17:56:18.657Z,12.60
2023-03-18T17:58:50.894Z,12.17
2023-03-18T18:01:29.493Z,13.30
2023-03-18T18:03:58.674Z,13.17
2023-03-18T18:06:28.872Z,12.30
2023-03-18T18:08:59.653Z,12.60
2023-03-18T18:11:35.097Z,12.33
2023-03-18T18:15:54.686Z,12.10
2023-03-18T18:18:26.763Z,10.17
2023-03-18T18:21:02.304Z,12.93
2023-03-18T18:23:33.163Z,11.70
2023-03-18T18:26:06.683Z,12.47
2023-03-18T18:28:42.897Z,12.17
2023-03-18T18:31:11.921Z,12.10
2023-03-18T18:33:41.750Z,12.47
2023-03-18T18:36:09.914Z,13.03
2023-03-18T18:38:36.420Z,11.83
2023-03-18T18:41:04.117Z,11.40
2023-03-18T18:43:30.616Z,11.43
2023-03-18T18:45:58.181Z,10.90
2023-03-18T18:48:37.126Z,11.00
2023-03-18T18:51:04.321Z,10.57
2023-03-18T18:53:35.857Z,11.27
2023-03-18T18:56:17.892Z,11.03
2023-03-18T18:58:44.941Z,11.07
2023-03-18T19:01:12.462Z,12.07
2023-03-18T19:03:40.726Z,10.67
2023-03-18T19:06:30.143Z,11.70
2023-03-18T19:09:02.551Z,11.50
2023-03-18T19:11:29.443Z,11.67
2023-03-18T19:14:25.838Z,10.73
2023-03-18T19:16:55.651Z,11.30
2023-03-18T19:19:30.492Z,11.37
2023-03-18T19:21:57.337Z,10.57
2023-03-18T19:24:30.755Z,11.43
2023-03-18T19:27:02.406Z,11.47
2023-03-18T19:29:29.782Z,11.37
2023-03-18T19:31:56.481Z,11.03
2023-03-18T19:34:23.143Z,10.53
2023-03-18T19:36:53.949Z,10.37
2023-03-18T19:39:21.795Z,9.87
2023-03-18T19:41:48.947Z,9.00
2023-03-18T19:44:19.656Z,9.13
2023-03-18T19:46:48.602Z,10.30
2023-03-18T19:49:26.581Z,10.37
2023-03-18T19:51:54.222Z,9.57
2023-03-18T19:54:42.221Z,10.50
2023-03-18T19:57:29.452Z,10.00
2023-03-18T19:59:58.560Z,9.70
2023-03-18T20:02:32.135Z,9.80
2023-03-18T20:05:15.518Z,9.53
2023-03-18T20:07:42.069Z,10.30
2023-03-18T20:10:11.633Z,9.57
2023-03-18T20:12:45.625Z,10.17
2023-03-18T20:15:19.627Z,9.50
2023-03-18T20:17:51.041Z,9.50
2023-03-18T20:20:30.397Z,9.47
2023-03-18T20:23:04.071Z,9.47
2023-03-18T20:25:40.215Z,10.10
2023-03-18T20:28:16.956Z,9.17
2023-03-18T20:30:46.059Z,9.83
2023-03-18T20:33:13.148Z,11.70
2023-03-18T20:35:44.114Z,11.50
2023-03-18T20:38:34.843Z,13.40
2023-03-18T20:41:04.689Z,12.93
2023-03-18T20:43:31.172Z,14.30
2023-03-18T20:46:00.416Z,13.90
2023-03-18T20:48:27.382Z,11.87
2023-03-18T20:50:54.784Z,9.27
2023-03-18T20:53:26.498Z,8.87
2023-03-18T20:55:53.026Z,9.97
2023-03-18T20:58:23.359Z,9.43
2023-03-18T21:00:51.584Z,8.77
2023-03-18T21:03:28.622Z,9.57
2023-03-18T21:05:57.985Z,8.87
2023-03-18T21:08:26.126Z,9.70
2023-03-18T21:10:59.011Z,9.63
2023-03-18T21:13:38.019Z,9.73
2023-03-18T21:16:10.876Z,9.33
2023-03-18T21:18:37.422Z,10.53
2023-03-18T21:21:03.940Z,10.37
2023-03-18T21:23:33.509Z,13.13
2023-03-18T21:26:01.289Z,10.77
2023-03-18T21:28:29.828Z,10.87
2023-03-18T21:30:58.200Z,9.63
2023-03-18T21:33:35.536Z,9.13
2023-03-18T21:36:02.555Z,9.33
2023-03-18T21:38:31.880Z,9.13
2023-03-18T21:41:01.198Z,9.03
2023-03-18T21:43:34.194Z,9.67
2023-03-18T21:46:03.724Z,9.70
2023-03-18T21:48:30.884Z,9.63
2023-03-18T21:50:57.930Z,10.70
2023-03-18T21:53:26.991Z,10.13
2023-03-18T21:55:54.026Z,10.50
2023-03-18T21:58:25.965Z,10.00
2023-03-18T22:00:58.846Z,9.23
2023-03-18T22:03:29.121Z,9.20
2023-03-18T22:05:56.683Z,8.63
2023-03-18T22:08:23.956Z,8.40
2023-03-18T22:10:51.707Z,9.00
2023-03-18T22:13:26.992Z,9.10
2023-03-18T22:15:56.247Z,8.83
2023-03-18T22:18:23.411Z,8.77
2023-03-18T22:20:51.368Z,8.60
2023-03-18T22:23:29.195Z,8.33
2023-03-18T22:25:57.410Z,9.07
2023-03-18T22:28:27.259Z,8.53
2023-03-18T22:30:55.115Z,9.80
2023-03-18T22:33:29.902Z,9.70
2023-03-18T22:35:56.982Z,8.97
2023-03-18T22:38:25.111Z,8.67
2023-03-18T22:40:55.668Z,8.80
2023-03-18T22:43:34.721Z,9.23
2023-03-18T22:46:05.634Z,8.73
2023-03-18T22:48:32.701Z,8.67
2023-03-18T22:51:00.993Z,8.63
2023-03-18T22:53:35.254Z,8.90
2023-03-18T22:56:09.343Z,8.87
2023-03-18T22:58:36.206Z,8.30
2023-03-18T23:01:03.424Z,8.87
2023-03-18T23:03:39.548Z,9.20
2023-03-18T23:06:07.128Z,9.07
2023-03-18T23:08:33.578Z,9.13
2023-03-18T23:11:01.714Z,8.87
2023-03-18T23:13:41.212Z,7.97
2023-03-18T23:16:14.821Z,8.57
2023-03-18T23:18:41.480Z,8.50
2023-03-18T23:21:16.414Z,8.20
2023-03-18T23:23:42.899Z,9.30
2023-03-18T23:26:09.409Z,8.57
2023-03-18T23:28:44.087Z,8.47
2023-03-18T23:31:12.590Z,8.67
2023-03-18T23:33:39.111Z,8.83
2023-03-18T23:36:06.155Z,7.53
2023-03-18T23:38:32.625Z,8.73
2023-03-18T23:40:59.145Z,8.40
2023-03-18T23:43:25.689Z,8.63
2023-03-18T23:45:52.292Z,9.83
2023-03-18T23:48:18.856Z,8.87
2023-03-18T23:50:45.759Z,8.87
2023-03-18T23:53:12.266Z,8.57
2023-03-18T23:55:38.785Z,8.57
2023-03-18T23:58:05.521Z,8.57
